Perkinsville, North Carolina
Current Conditions -  °F | °C
As of 3:35 AM on Friday 28 Nov 2014 (Local Time) from KTNB Reporting Station
Light Snow Light Snow  
Wind Chill: 11°   Ceiling: 2200
Heat Index: 22°   Visibility: 10mi
Dew Point: 14°   Wind: 10mph
Humidity: 70%   Direction: 300°WNW
Pressure: 30.2"   Gusts: 17mph
Location:  36.2085°N, 81.6605°W
Report Text: KTNB 280835Z AUTO 30009G15KT 10SM -SN OVC022 M05/M10 A3020 RMK AO2 T10551101
Loading
Personal Weather Stations






























Interactive Weather Map New forecast layout! Learn more

10-Day Weather Forecast

Advertisements
Track Severe Weather on mobile